Airfield :
LOGIN :

Register | Disclaimer

   EN    FR    IT 

 










Legend :    VFR   Marginal VFR   IFR   Intensive IFR   Very Intensive IFR
Visi :
Ceiling :
>= 8 km
>= 3000ft
5 to 8 km
1000 to 3000 ft
1500m to 5 km
500 to 1000 ft
800 to 1500m
200 to 500 ft
< 800m
< 200 ft
Symbols :   Thunderstorms  Fog  Heavy snow  Heavy precipitations  Wind > 20 kt
SIGMETs :     Misc.  Thunderstorms  Icing  Turbulence  Mountain Waves  Volcanic Ashes







- Airport Elevation : 885 ft
- IATA code : BAS
- Download approach charts


LFSB - Bale-Mulhouse

CURRENT METAR :
  • 152000Z 10010KT 9999 FEW026 BKN130 M00/M05 Q1019 NOSIG

EXPIRED METARs :
  • 151930Z 10011KT 9999 FEW026 BKN140 M00/M05 Q1019 NOSIG
  • 151900Z 10010KT 9999 FEW026 BKN150 BKN200 M00/M05 Q1019 NOSIG
  • 151830Z 10010KT 9999 FEW026 BKN160 BKN210 M00/M05 Q1019 NOSIG
  • 151800Z 10010KT 9999 FEW026 SCT230 M00/M05 Q1020 NOSIG
  • 151730Z 10010KT 9999 FEW026 SCT230 M00/M05 Q1020 NOSIG
  • 151700Z 10010KT 9999 SCT026 M00/M05 Q1021 NOSIG

TAF TAF LFSB
Valid from the 15 at 18:00 until the 16 at 18:00 UTC


151700Z 1518/1618 10010KT CAVOK
TEMPO 1522/1602 2000 -SN BKN005
TEMPO 1602/1605 4000 -RASN BKN010
BECMG 1605/1607 20007KT BKN008
PROB40
TEMPO 1607/1615 4000 -DZ BR OVC003
Met : +33 3 89 90 31 11
No reported NOTAMs for that airfield.
1 SIGMET reported for the Reims FIR (LFEE) :
 
Severe icing with freezing rain
LFEE SIGMET 1 VALID 152000/160000 LFPW
LFEE REIMS FIR/UIR SEV ICE (FZRA) FCST W OF LINE N4630 E00530 - N4930 E00600 SFC/FL020 MOV E 15KT NC=



MET'MAP, your aeronautical weather chart ! - Copyright ORBIFLY December 2007 - Disclaimer

ORBIFLY MET'MAP TEAM :

Programming & Development : Alexandra Zaïnal
Concept & Development : Baudouin d'Aumeries
Co-Development & Prog : Marc-Olivier Méhu
Technical & hardware support : Manuel Goepfert

Contact : metmap@orbifly.com




SOURCES & CREDITS :

   NOAA